sensor_id;sensor_type;location;lat;lon;timestamp;pressure;altitude;pressure_sealevel;temperature;humidity
6134;BME280;3098;42.678;23.364;2023-12-28T00:00:53;96080.03;;;3.10;100.00
6134;BME280;3098;42.678;23.364;2023-12-28T00:03:25;95755.44;;;0.86;100.00
6134;BME280;3098;42.678;23.364;2023-12-28T00:05:58;96101.72;;;3.06;100.00
6134;BME280;3098;42.678;23.364;2023-12-28T00:08:31;96094.75;;;3.11;100.00
6134;BME280;3098;42.678;23.364;2023-12-28T00:11:00;96091.25;;;2.94;100.00
6134;BME280;3098;42.678;23.364;2023-12-28T00:13:28;95915.84;;;1.61;100.00
6134;BME280;3098;42.678;23.364;2023-12-28T00:15:58;95959.78;;;1.41;100.00
6134;BME280;3098;42.678;23.364;2023-12-28T00:18:31;95555.63;;;-1.22;100.00
6134;BME280;3098;42.678;23.364;2023-12-28T00:21:00;96100.25;;;2.17;100.00
6134;BME280;3098;42.678;23.364;2023-12-28T00:23:31;95611.97;;;-1.09;100.00
6134;BME280;3098;42.678;23.364;2023-12-28T00:26:02;95939.25;;;1.03;100.00
6134;BME280;3098;42.678;23.364;2023-12-28T00:28:34;95778.44;;;0.13;100.00
6134;BME280;3098;42.678;23.364;2023-12-28T00:31:03;95905.97;;;0.99;100.00
6134;BME280;3098;42.678;23.364;2023-12-28T00:33:33;95815.97;;;0.42;100.00
6134;BME280;3098;42.678;23.364;2023-12-28T00:36:03;96110.84;;;2.22;100.00
6134;BME280;3098;42.678;23.364;2023-12-28T00:38:32;95814.16;;;0.42;100.00
6134;BME280;3098;42.678;23.364;2023-12-28T00:41:05;95632.09;;;-0.68;100.00
6134;BME280;3098;42.678;23.364;2023-12-28T00:43:35;95662.09;;;-0.47;100.00
6134;BME280;3098;42.678;23.364;2023-12-28T00:46:06;95998.88;;;1.48;100.00
6134;BME280;3098;42.678;23.364;2023-12-28T00:48:49;95783.19;;;0.46;100.00
6134;BME280;3098;42.678;23.364;2023-12-28T00:51:19;95844.25;;;0.86;100.00
6134;BME280;3098;42.678;23.364;2023-12-28T00:53:58;95818.47;;;0.78;100.00
6134;BME280;3098;42.678;23.364;2023-12-28T00:56:34;96158.22;;;2.67;100.00
6134;BME280;3098;42.678;23.364;2023-12-28T00:59:04;95628.19;;;-0.59;100.00
6134;BME280;3098;42.678;23.364;2023-12-28T01:01:33;95826.63;;;0.70;100.00
6134;BME280;3098;42.678;23.364;2023-12-28T01:04:27;95616.16;;;-1.08;100.00
6134;BME280;3098;42.678;23.364;2023-12-28T01:07:00;95864.19;;;0.69;100.00
6134;BME280;3098;42.678;23.364;2023-12-28T01:09:35;96130.44;;;2.31;100.00
6134;BME280;3098;42.678;23.364;2023-12-28T01:12:09;95829.78;;;0.31;100.00
6134;BME280;3098;42.678;23.364;2023-12-28T01:14:40;95819.84;;;-0.09;100.00
6134;BME280;3098;42.678;23.364;2023-12-28T01:17:16;96121.72;;;2.07;100.00
6134;BME280;3098;42.678;23.364;2023-12-28T01:19:59;96151.59;;;2.18;100.00
6134;BME280;3098;42.678;23.364;2023-12-28T01:22:30;96142.56;;;2.14;100.00
6134;BME280;3098;42.678;23.364;2023-12-28T01:25:01;95678.34;;;-0.82;100.00
6134;BME280;3098;42.678;23.364;2023-12-28T01:27:37;95940.44;;;0.89;100.00
6134;BME280;3098;42.678;23.364;2023-12-28T01:30:10;95974.03;;;1.15;100.00
6134;BME280;3098;42.678;23.364;2023-12-28T01:32:48;95845.13;;;0.39;100.00
6134;BME280;3098;42.678;23.364;2023-12-28T01:35:31;96030.97;;;1.55;100.00
6134;BME280;3098;42.678;23.364;2023-12-28T01:38:05;95643.63;;;-0.76;100.00
6134;BME280;3098;42.678;23.364;2023-12-28T01:40:34;95918.13;;;1.05;100.00
6134;BME280;3098;42.678;23.364;2023-12-28T01:43:04;96010.19;;;1.60;100.00
6134;BME280;3098;42.678;23.364;2023-12-28T01:45:35;95655.53;;;-0.68;100.00
6134;BME280;3098;42.678;23.364;2023-12-28T01:48:06;95690.31;;;-0.44;100.00
6134;BME280;3098;42.678;23.364;2023-12-28T01:50:50;95952.91;;;1.17;100.00
6134;BME280;3098;42.678;23.364;2023-12-28T01:53:21;95681.66;;;-0.57;100.00
6134;BME280;3098;42.678;23.364;2023-12-28T01:55:52;96147.00;;;2.13;100.00
6134;BME280;3098;42.678;23.364;2023-12-28T01:58:21;96133.34;;;2.11;100.00
6134;BME280;3098;42.678;23.364;2023-12-28T02:00:50;95621.81;;;-1.11;100.00
6134;BME280;3098;42.678;23.364;2023-12-28T02:03:18;95921.16;;;0.90;100.00
6134;BME280;3098;42.678;23.364;2023-12-28T02:05:51;96106.19;;;2.24;100.00
6134;BME280;3098;42.678;23.364;2023-12-28T02:08:21;95711.97;;;-0.14;100.00
6134;BME280;3098;42.678;23.364;2023-12-28T02:10:52;96099.38;;;2.35;100.00
6134;BME280;3098;42.678;23.364;2023-12-28T02:13:21;95984.81;;;1.49;100.00
6134;BME280;3098;42.678;23.364;2023-12-28T02:15:54;95816.22;;;0.52;100.00
6134;BME280;3098;42.678;23.364;2023-12-28T02:18:30;95943.16;;;1.24;100.00
6134;BME280;3098;42.678;23.364;2023-12-28T02:21:17;96132.16;;;2.37;100.00
6134;BME280;3098;42.678;23.364;2023-12-28T02:23:51;96106.50;;;2.27;100.00
6134;BME280;3098;42.678;23.364;2023-12-28T02:26:27;96091.94;;;2.08;100.00
6134;BME280;3098;42.678;23.364;2023-12-28T02:28:56;96135.81;;;1.95;100.00
6134;BME280;3098;42.678;23.364;2023-12-28T02:31:35;95657.59;;;-1.06;100.00
6134;BME280;3098;42.678;23.364;2023-12-28T02:34:11;95675.38;;;-1.03;100.00
6134;BME280;3098;42.678;23.364;2023-12-28T02:36:42;96106.47;;;1.93;100.00
6134;BME280;3098;42.678;23.364;2023-12-28T02:39:17;95674.31;;;-0.78;100.00
6134;BME280;3098;42.678;23.364;2023-12-28T02:41:50;95787.81;;;0.03;100.00
6134;BME280;3098;42.678;23.364;2023-12-28T02:44:21;96102.50;;;2.02;100.00
6134;BME280;3098;42.678;23.364;2023-12-28T02:46:52;95920.00;;;0.86;100.00
6134;BME280;3098;42.678;23.364;2023-12-28T02:49:24;95820.16;;;0.13;100.00
6134;BME280;3098;42.678;23.364;2023-12-28T02:51:54;96085.41;;;1.88;100.00
6134;BME280;3098;42.678;23.364;2023-12-28T02:54:29;95647.44;;;-1.33;100.00
6134;BME280;3098;42.678;23.364;2023-12-28T02:57:20;95966.75;;;0.76;100.00
6134;BME280;3098;42.678;23.364;2023-12-28T02:59:56;96096.81;;;1.63;100.00
6134;BME280;3098;42.678;23.364;2023-12-28T03:02:28;96099.00;;;1.66;100.00
6134;BME280;3098;42.678;23.364;2023-12-28T03:05:01;96093.06;;;1.59;100.00
6134;BME280;3098;42.678;23.364;2023-12-28T03:07:32;95932.63;;;0.41;100.00
6134;BME280;3098;42.678;23.364;2023-12-28T03:10:10;95621.34;;;-1.44;100.00
6134;BME280;3098;42.678;23.364;2023-12-28T03:12:44;96081.94;;;1.64;100.00
6134;BME280;3098;42.678;23.364;2023-12-28T03:15:15;95635.09;;;-1.37;100.00
6134;BME280;3098;42.678;23.364;2023-12-28T03:17:44;95584.81;;;-1.74;100.00
6134;BME280;3098;42.678;23.364;2023-12-28T03:20:16;95797.09;;;-0.38;100.00
6134;BME280;3098;42.678;23.364;2023-12-28T03:22:44;95932.88;;;0.51;100.00
6134;BME280;3098;42.678;23.364;2023-12-28T03:25:12;95951.63;;;0.30;100.00
6134;BME280;3098;42.678;23.364;2023-12-28T03:27:49;95788.19;;;-0.67;100.00
6134;BME280;3098;42.678;23.364;2023-12-28T03:30:23;96080.25;;;1.40;100.00
6134;BME280;3098;42.678;23.364;2023-12-28T03:32:51;95604.69;;;-1.61;100.00
6134;BME280;3098;42.678;23.364;2023-12-28T03:35:21;95862.06;;;-0.18;100.00
6134;BME280;3098;42.678;23.364;2023-12-28T03:37:52;96133.03;;;1.48;100.00
6134;BME280;3098;42.678;23.364;2023-12-28T03:40:22;96130.50;;;1.42;100.00
6134;BME280;3098;42.678;23.364;2023-12-28T03:42:55;95634.44;;;-1.76;100.00
6134;BME280;3098;42.678;23.364;2023-12-28T03:45:24;95595.34;;;-2.12;100.00
6134;BME280;3098;42.678;23.364;2023-12-28T03:47:58;95942.13;;;0.36;100.00
6134;BME280;3098;42.678;23.364;2023-12-28T03:50:26;95641.63;;;-1.71;100.00
6134;BME280;3098;42.678;23.364;2023-12-28T03:52:56;96122.19;;;1.33;100.00
6134;BME280;3098;42.678;23.364;2023-12-28T03:55:28;95830.06;;;-0.43;100.00
6134;BME280;3098;42.678;23.364;2023-12-28T03:58:05;96136.38;;;1.37;100.00
6134;BME280;3098;42.678;23.364;2023-12-28T04:00:35;95983.94;;;0.29;100.00
6134;BME280;3098;42.678;23.364;2023-12-28T04:03:05;95643.31;;;-2.08;100.00
6134;BME280;3098;42.678;23.364;2023-12-28T04:05:34;95897.38;;;-0.22;100.00
6134;BME280;3098;42.678;23.364;2023-12-28T04:08:05;96120.56;;;1.14;100.00
6134;BME280;3098;42.678;23.364;2023-12-28T04:10:35;95910.81;;;-0.01;100.00
6134;BME280;3098;42.678;23.364;2023-12-28T04:13:16;95832.22;;;-0.83;100.00
6134;BME280;3098;42.678;23.364;2023-12-28T04:15:46;95825.84;;;-0.63;100.00
6134;BME280;3098;42.678;23.364;2023-12-28T04:18:22;96125.22;;;1.30;100.00
6134;BME280;3098;42.678;23.364;2023-12-28T04:20:51;96129.28;;;1.26;100.00
6134;BME280;3098;42.678;23.364;2023-12-28T04:23:21;95971.94;;;0.28;100.00
6134;BME280;3098;42.678;23.364;2023-12-28T04:25:49;95690.00;;;-1.45;100.00
6134;BME280;3098;42.678;23.364;2023-12-28T04:28:26;95683.75;;;-1.62;100.00
6134;BME280;3098;42.678;23.364;2023-12-28T04:30:55;95648.22;;;-1.75;100.00
6134;BME280;3098;42.678;23.364;2023-12-28T04:33:28;95645.34;;;-1.85;100.00
6134;BME280;3098;42.678;23.364;2023-12-28T04:36:00;95832.19;;;-0.59;100.00
6134;BME280;3098;42.678;23.364;2023-12-28T04:38:31;96104.19;;;1.07;100.00
6134;BME280;3098;42.678;23.364;2023-12-28T04:41:02;95684.91;;;-1.58;100.00
6134;BME280;3098;42.678;23.364;2023-12-28T04:43:38;96199.34;;;1.36;100.00
6134;BME280;3098;42.678;23.364;2023-12-28T04:46:12;95680.97;;;-1.43;100.00
6134;BME280;3098;42.678;23.364;2023-12-28T04:48:43;96123.38;;;1.49;100.00
6134;BME280;3098;42.678;23.364;2023-12-28T04:51:31;95563.78;;;-2.15;100.00
6134;BME280;3098;42.678;23.364;2023-12-28T04:54:06;96049.03;;;0.97;100.00
6134;BME280;3098;42.678;23.364;2023-12-28T04:56:40;95836.78;;;-0.36;100.00
6134;BME280;3098;42.678;23.364;2023-12-28T04:59:24;95672.22;;;-1.48;100.00
6134;BME280;3098;42.678;23.364;2023-12-28T05:02:05;95595.75;;;-2.15;100.00
6134;BME280;3098;42.678;23.364;2023-12-28T05:04:38;96118.63;;;1.09;100.00
6134;BME280;3098;42.678;23.364;2023-12-28T05:07:15;95719.47;;;-1.27;100.00
6134;BME280;3098;42.678;23.364;2023-12-28T05:09:59;95830.44;;;-0.65;100.00
6134;BME280;3098;42.678;23.364;2023-12-28T05:12:50;96140.97;;;1.24;100.00
6134;BME280;3098;42.678;23.364;2023-12-28T05:47:35;95971.41;;;-0.23;100.00
6134;BME280;3098;42.678;23.364;2023-12-28T05:50:22;95683.97;;;-2.20;100.00
6134;BME280;3098;42.678;23.364;2023-12-28T05:52:56;95999.56;;;-0.07;100.00
6134;BME280;3098;42.678;23.364;2023-12-28T05:55:24;96161.50;;;0.84;100.00
6134;BME280;3098;42.678;23.364;2023-12-28T05:57:52;95768.53;;;-1.86;100.00
6134;BME280;3098;42.678;23.364;2023-12-28T06:00:20;95722.84;;;-2.07;100.00
6134;BME280;3098;42.678;23.364;2023-12-28T06:02:49;96030.25;;;-0.09;100.00
6134;BME280;3098;42.678;23.364;2023-12-28T06:05:17;96101.59;;;0.46;100.00
6134;BME280;3098;42.678;23.364;2023-12-28T06:07:45;96123.47;;;0.70;100.00
6134;BME280;3098;42.678;23.364;2023-12-28T06:10:13;96009.41;;;0.09;100.00
6134;BME280;3098;42.678;23.364;2023-12-28T06:12:47;96170.09;;;1.27;100.00
6134;BME280;3098;42.678;23.364;2023-12-28T06:15:22;95742.66;;;-0.82;100.00
6134;BME280;3098;42.678;23.364;2023-12-28T06:17:51;95694.59;;;-0.50;100.00
6134;BME280;3098;42.678;23.364;2023-12-28T06:20:20;96170.78;;;2.88;100.00
6134;BME280;3098;42.678;23.364;2023-12-28T06:22:48;96167.34;;;2.76;100.00
6134;BME280;3098;42.678;23.364;2023-12-28T06:25:18;95741.84;;;0.84;100.00
6134;BME280;3098;42.678;23.364;2023-12-28T06:27:45;96013.25;;;3.13;100.00
6134;BME280;3098;42.678;23.364;2023-12-28T06:30:15;95874.44;;;1.82;100.00
6134;BME280;3098;42.678;23.364;2023-12-28T06:32:47;96084.59;;;4.16;100.00
6134;BME280;3098;42.678;23.364;2023-12-28T06:35:17;96021.88;;;4.96;100.00
6134;BME280;3098;42.678;23.364;2023-12-28T06:37:46;95882.63;;;5.33;100.00
6134;BME280;3098;42.678;23.364;2023-12-28T06:40:13;96164.59;;;7.89;100.00
6134;BME280;3098;42.678;23.364;2023-12-28T06:42:41;95686.91;;;5.34;100.00
6134;BME280;3098;42.678;23.364;2023-12-28T06:45:10;95739.56;;;5.91;100.00
6134;BME280;3098;42.678;23.364;2023-12-28T06:47:38;96125.63;;;8.57;100.00
6134;BME280;3098;42.678;23.364;2023-12-28T06:50:06;95943.22;;;7.41;100.00
6134;BME280;3098;42.678;23.364;2023-12-28T06:52:36;95947.69;;;8.26;100.00
6134;BME280;3098;42.678;23.364;2023-12-28T06:55:04;96005.03;;;8.00;100.00
6134;BME280;3098;42.678;23.364;2023-12-28T06:57:32;96108.50;;;10.42;100.00
6134;BME280;3098;42.678;23.364;2023-12-28T07:00:17;96085.69;;;10.07;100.00
6134;BME280;3098;42.678;23.364;2023-12-28T07:02:54;95982.53;;;8.63;100.00
6134;BME280;3098;42.678;23.364;2023-12-28T07:05:25;96118.53;;;9.57;100.00
6134;BME280;3098;42.678;23.364;2023-12-28T07:07:57;95850.13;;;6.38;100.00
6134;BME280;3098;42.678;23.364;2023-12-28T07:10:28;96118.91;;;9.20;100.00
6134;BME280;3098;42.678;23.364;2023-12-28T07:12:55;96068.09;;;11.12;100.00
6134;BME280;3098;42.678;23.364;2023-12-28T07:15:25;95727.28;;;9.62;100.00
6134;BME280;3098;42.678;23.364;2023-12-28T07:17:54;95869.53;;;10.19;100.00
6134;BME280;3098;42.678;23.364;2023-12-28T07:20:22;95903.69;;;10.73;100.00
6134;BME280;3098;42.678;23.364;2023-12-28T07:22:51;95670.47;;;9.26;100.00
6134;BME280;3098;42.678;23.364;2023-12-28T07:25:21;95764.06;;;9.93;100.00
6134;BME280;3098;42.678;23.364;2023-12-28T07:27:49;95683.44;;;9.28;100.00
6134;BME280;3098;42.678;23.364;2023-12-28T07:30:18;95680.16;;;9.36;100.00
6134;BME280;3098;42.678;23.364;2023-12-28T07:32:48;95860.91;;;10.56;100.00
6134;BME280;3098;42.678;23.364;2023-12-28T07:35:17;95762.41;;;9.97;100.00
6134;BME280;3098;42.678;23.364;2023-12-28T07:37:45;96100.09;;;12.61;100.00
6134;BME280;3098;42.678;23.364;2023-12-28T07:40:13;95891.69;;;11.37;100.00
6134;BME280;3098;42.678;23.364;2023-12-28T07:42:43;96098.94;;;12.67;100.00
6134;BME280;3098;42.678;23.364;2023-12-28T07:45:11;95697.22;;;10.57;100.00
6134;BME280;3098;42.678;23.364;2023-12-28T07:47:40;95995.56;;;12.88;100.00
6134;BME280;3098;42.678;23.364;2023-12-28T07:50:09;96095.53;;;12.94;100.00
6134;BME280;3098;42.678;23.364;2023-12-28T07:52:38;95691.13;;;10.56;100.00
6134;BME280;3098;42.678;23.364;2023-12-28T07:55:08;95626.03;;;9.89;100.00
6134;BME280;3098;42.678;23.364;2023-12-28T08:00:29;96097.09;;;10.46;100.00
6134;BME280;3098;42.678;23.364;2023-12-28T08:03:00;95832.50;;;8.20;100.00
6134;BME280;3098;42.678;23.364;2023-12-28T08:05:37;95842.16;;;10.48;100.00
6134;BME280;3098;42.678;23.364;2023-12-28T08:08:06;95985.22;;;11.52;100.00
6134;BME280;3098;42.678;23.364;2023-12-28T08:10:34;95735.56;;;10.64;100.00
6134;BME280;3098;42.678;23.364;2023-12-28T08:13:09;95768.66;;;9.58;100.00
6134;BME280;3098;42.678;23.364;2023-12-28T08:15:40;95844.41;;;9.20;100.00
6134;BME280;3098;42.678;23.364;2023-12-28T08:18:08;95964.34;;;12.48;100.00
6134;BME280;3098;42.678;23.364;2023-12-28T08:20:36;96091.38;;;13.34;100.00
6134;BME280;3098;42.678;23.364;2023-12-28T08:23:05;95851.38;;;12.40;100.00
6134;BME280;3098;42.678;23.364;2023-12-28T08:25:33;95826.66;;;12.67;100.00
6134;BME280;3098;42.678;23.364;2023-12-28T08:28:01;95734.56;;;10.98;100.00
6134;BME280;3098;42.678;23.364;2023-12-28T08:30:33;96100.81;;;13.95;100.00
6134;BME280;3098;42.678;23.364;2023-12-28T08:33:04;96069.34;;;14.55;100.00
6134;BME280;3098;42.678;23.364;2023-12-28T08:35:34;95910.16;;;14.76;100.00
6134;BME280;3098;42.678;23.364;2023-12-28T08:38:03;96065.53;;;14.47;100.00
6134;BME280;3098;42.678;23.364;2023-12-28T08:40:35;96136.88;;;16.26;100.00
6134;BME280;3098;42.678;23.364;2023-12-28T08:43:12;95900.44;;;15.53;92.85
6134;BME280;3098;42.678;23.364;2023-12-28T08:45:42;95970.41;;;14.60;100.00
6134;BME280;3098;42.678;23.364;2023-12-28T08:48:15;95659.53;;;14.09;94.08
6134;BME280;3098;42.678;23.364;2023-12-28T08:50:46;95775.72;;;15.40;85.45
6134;BME280;3098;42.678;23.364;2023-12-28T08:53:14;95633.63;;;13.45;87.81
6134;BME280;3098;42.678;23.364;2023-12-28T08:55:48;96062.72;;;16.61;89.81
6134;BME280;3098;42.678;23.364;2023-12-28T08:58:16;95848.81;;;13.25;100.00
6134;BME280;3098;42.678;23.364;2023-12-28T09:00:44;96059.66;;;14.89;100.00
6134;BME280;3098;42.678;23.364;2023-12-28T09:03:17;95875.34;;;12.67;100.00
6134;BME280;3098;42.678;23.364;2023-12-28T09:05:44;95805.78;;;11.09;100.00
6134;BME280;3098;42.678;23.364;2023-12-28T09:08:12;95677.03;;;9.29;100.00
6134;BME280;3098;42.678;23.364;2023-12-28T09:10:40;95917.25;;;10.72;100.00
6134;BME280;3098;42.678;23.364;2023-12-28T09:13:15;95964.19;;;11.93;100.00
6134;BME280;3098;42.678;23.364;2023-12-28T09:15:43;95728.06;;;11.82;100.00
6134;BME280;3098;42.678;23.364;2023-12-28T09:18:13;95869.69;;;11.50;100.00
6134;BME280;3098;42.678;23.364;2023-12-28T09:20:41;95888.03;;;11.14;100.00
6134;BME280;3098;42.678;23.364;2023-12-28T09:23:10;95917.84;;;12.45;100.00
6134;BME280;3098;42.678;23.364;2023-12-28T09:25:39;95863.81;;;12.72;100.00
6134;BME280;3098;42.678;23.364;2023-12-28T09:28:08;95851.66;;;12.93;100.00
6134;BME280;3098;42.678;23.364;2023-12-28T09:30:42;95775.22;;;11.44;100.00
6134;BME280;3098;42.678;23.364;2023-12-28T09:33:17;95824.84;;;11.48;100.00
6134;BME280;3098;42.678;23.364;2023-12-28T09:35:45;95731.63;;;11.45;100.00
6134;BME280;3098;42.678;23.364;2023-12-28T09:38:15;95847.59;;;11.87;100.00
6134;BME280;3098;42.678;23.364;2023-12-28T09:40:43;95619.00;;;10.54;100.00
6134;BME280;3098;42.678;23.364;2023-12-28T09:43:16;95629.78;;;11.22;100.00
6134;BME280;3098;42.678;23.364;2023-12-28T09:45:53;95644.63;;;11.69;100.00
6134;BME280;3098;42.678;23.364;2023-12-28T09:48:25;95598.31;;;11.02;100.00
6134;BME280;3098;42.678;23.364;2023-12-28T09:50:54;95855.38;;;11.83;100.00
6134;BME280;3098;42.678;23.364;2023-12-28T09:53:23;95551.53;;;9.53;100.00
6134;BME280;3098;42.678;23.364;2023-12-28T09:55:53;95964.34;;;12.48;100.00
6134;BME280;3098;42.678;23.364;2023-12-28T09:58:21;95595.28;;;12.13;100.00
6134;BME280;3098;42.678;23.364;2023-12-28T10:00:51;95592.63;;;11.36;100.00
6134;BME280;3098;42.678;23.364;2023-12-28T10:03:21;95719.97;;;12.00;100.00
6134;BME280;3098;42.678;23.364;2023-12-28T10:05:52;95639.22;;;11.15;100.00
6134;BME280;3098;42.678;23.364;2023-12-28T10:08:20;95795.19;;;12.83;100.00
6134;BME280;3098;42.678;23.364;2023-12-28T10:10:52;95843.22;;;14.24;100.00
6134;BME280;3098;42.678;23.364;2023-12-28T10:13:25;95954.47;;;15.25;100.00
6134;BME280;3098;42.678;23.364;2023-12-28T10:15:56;95535.34;;;11.71;100.00
6134;BME280;3098;42.678;23.364;2023-12-28T10:18:30;95799.78;;;13.49;100.00
6134;BME280;3098;42.678;23.364;2023-12-28T10:21:10;95840.00;;;12.89;100.00
6134;BME280;3098;42.678;23.364;2023-12-28T10:23:39;95552.56;;;11.73;100.00
6134;BME280;3098;42.678;23.364;2023-12-28T10:26:08;95834.75;;;14.79;100.00
6134;BME280;3098;42.678;23.364;2023-12-28T10:28:36;95800.81;;;14.71;100.00
6134;BME280;3098;42.678;23.364;2023-12-28T10:31:05;95580.66;;;13.12;100.00
6134;BME280;3098;42.678;23.364;2023-12-28T10:33:36;95655.19;;;14.73;100.00
6134;BME280;3098;42.678;23.364;2023-12-28T10:36:07;95510.09;;;13.58;100.00
6134;BME280;3098;42.678;23.364;2023-12-28T10:38:38;95681.97;;;11.59;100.00
6134;BME280;3098;42.678;23.364;2023-12-28T10:41:08;95889.84;;;14.27;100.00
6134;BME280;3098;42.678;23.364;2023-12-28T10:43:43;95886.19;;;13.34;100.00
6134;BME280;3098;42.678;23.364;2023-12-28T10:46:22;95603.06;;;11.46;100.00
6134;BME280;3098;42.678;23.364;2023-12-28T10:49:00;95871.19;;;13.82;100.00
6134;BME280;3098;42.678;23.364;2023-12-28T10:51:38;95573.34;;;11.17;100.00
6134;BME280;3098;42.678;23.364;2023-12-28T10:54:20;95312.31;;;10.04;100.00
6134;BME280;3098;42.678;23.364;2023-12-28T10:57:01;95427.84;;;10.91;100.00
6134;BME280;3098;42.678;23.364;2023-12-28T10:59:43;95405.69;;;11.10;100.00
6134;BME280;3098;42.678;23.364;2023-12-28T11:02:16;95430.06;;;11.25;100.00
6134;BME280;3098;42.678;23.364;2023-12-28T11:04:54;95724.72;;;12.03;100.00
6134;BME280;3098;42.678;23.364;2023-12-28T11:07:40;95610.63;;;11.39;100.00
6134;BME280;3098;42.678;23.364;2023-12-28T11:10:14;95689.56;;;12.06;100.00
6134;BME280;3098;42.678;23.364;2023-12-28T11:12:45;95743.56;;;12.56;100.00
6134;BME280;3098;42.678;23.364;2023-12-28T11:15:15;95683.94;;;11.53;100.00
6134;BME280;3098;42.678;23.364;2023-12-28T11:17:45;95408.88;;;9.65;100.00
6134;BME280;3098;42.678;23.364;2023-12-28T11:20:15;95368.97;;;9.62;100.00
6134;BME280;3098;42.678;23.364;2023-12-28T11:22:51;95367.28;;;9.15;100.00
6134;BME280;3098;42.678;23.364;2023-12-28T11:25:19;95356.31;;;9.40;100.00
6134;BME280;3098;42.678;23.364;2023-12-28T11:27:46;95814.34;;;12.17;100.00
6134;BME280;3098;42.678;23.364;2023-12-28T11:30:15;95671.34;;;11.59;100.00
6134;BME280;3098;42.678;23.364;2023-12-28T11:32:45;95513.66;;;10.09;100.00
6134;BME280;3098;42.678;23.364;2023-12-28T11:35:16;95403.75;;;8.99;100.00
6134;BME280;3098;42.678;23.364;2023-12-28T11:37:51;95795.63;;;12.35;100.00
6134;BME280;3098;42.678;23.364;2023-12-28T11:40:19;95546.59;;;11.00;100.00
6134;BME280;3098;42.678;23.364;2023-12-28T11:42:50;95629.81;;;11.49;100.00
6134;BME280;3098;42.678;23.364;2023-12-28T11:45:19;95616.13;;;11.29;100.00
6134;BME280;3098;42.678;23.364;2023-12-28T11:47:58;95359.69;;;9.59;100.00
6134;BME280;3098;42.678;23.364;2023-12-28T11:50:27;95380.88;;;9.27;100.00
6134;BME280;3098;42.678;23.364;2023-12-28T11:52:57;95622.81;;;11.53;100.00
6134;BME280;3098;42.678;23.364;2023-12-28T11:55:25;95633.84;;;12.01;100.00
6134;BME280;3098;42.678;23.364;2023-12-28T11:57:54;95817.41;;;13.00;100.00
6134;BME280;3098;42.678;23.364;2023-12-28T12:00:25;95808.91;;;13.48;100.00
6134;BME280;3098;42.678;23.364;2023-12-28T12:02:53;95417.72;;;11.65;100.00
6134;BME280;3098;42.678;23.364;2023-12-28T12:05:21;95768.59;;;14.67;100.00
6134;BME280;3098;42.678;23.364;2023-12-28T12:07:49;95768.31;;;14.77;100.00
6134;BME280;3098;42.678;23.364;2023-12-28T12:10:19;95792.72;;;13.44;100.00
6134;BME280;3098;42.678;23.364;2023-12-28T12:12:47;95702.19;;;12.50;100.00
6134;BME280;3098;42.678;23.364;2023-12-28T12:15:14;95762.50;;;12.55;100.00
6134;BME280;3098;42.678;23.364;2023-12-28T12:17:41;95316.69;;;9.67;100.00
6134;BME280;3098;42.678;23.364;2023-12-28T12:20:09;95579.94;;;11.46;100.00
6134;BME280;3098;42.678;23.364;2023-12-28T12:22:37;95366.91;;;9.72;100.00
6134;BME280;3098;42.678;23.364;2023-12-28T12:25:06;95625.81;;;12.29;100.00
6134;BME280;3098;42.678;23.364;2023-12-28T12:27:36;95680.75;;;12.91;100.00
6134;BME280;3098;42.678;23.364;2023-12-28T12:30:06;95346.53;;;11.31;100.00
6134;BME280;3098;42.678;23.364;2023-12-28T12:32:35;95696.53;;;13.63;100.00
6134;BME280;3098;42.678;23.364;2023-12-28T12:35:07;95332.50;;;10.81;100.00
6134;BME280;3098;42.678;23.364;2023-12-28T12:37:35;95775.09;;;12.63;100.00
6134;BME280;3098;42.678;23.364;2023-12-28T12:40:04;95749.50;;;12.89;100.00
6134;BME280;3098;42.678;23.364;2023-12-28T12:42:32;95498.22;;;11.16;100.00
6134;BME280;3098;42.678;23.364;2023-12-28T12:45:03;95577.06;;;11.57;100.00
6134;BME280;3098;42.678;23.364;2023-12-28T12:47:32;95296.22;;;10.00;100.00
6134;BME280;3098;42.678;23.364;2023-12-28T12:50:01;95264.97;;;9.56;100.00
6134;BME280;3098;42.678;23.364;2023-12-28T12:52:29;95729.81;;;12.41;100.00
6134;BME280;3098;42.678;23.364;2023-12-28T12:54:57;95801.25;;;12.34;100.00
6134;BME280;3098;42.678;23.364;2023-12-28T12:57:24;95263.63;;;8.76;100.00
6134;BME280;3098;42.678;23.364;2023-12-28T12:59:53;95743.41;;;12.39;100.00
6134;BME280;3098;42.678;23.364;2023-12-28T13:02:25;95601.66;;;11.21;100.00
6134;BME280;3098;42.678;23.364;2023-12-28T13:04:53;95617.22;;;11.28;100.00
6134;BME280;3098;42.678;23.364;2023-12-28T13:07:23;95260.19;;;9.26;100.00
6134;BME280;3098;42.678;23.364;2023-12-28T13:09:51;95308.44;;;8.67;100.00
6134;BME280;3098;42.678;23.364;2023-12-28T13:12:19;95562.19;;;10.74;100.00
6134;BME280;3098;42.678;23.364;2023-12-28T13:14:47;95587.63;;;11.34;100.00
6134;BME280;3098;42.678;23.364;2023-12-28T13:20:22;95441.78;;;9.59;100.00
6134;BME280;3098;42.678;23.364;2023-12-28T13:22:59;95303.00;;;8.58;100.00
6134;BME280;3098;42.678;23.364;2023-12-28T13:25:38;95726.47;;;11.21;100.00
6134;BME280;3098;42.678;23.364;2023-12-28T13:28:07;95432.44;;;9.11;100.00
6134;BME280;3098;42.678;23.364;2023-12-28T13:30:40;95590.59;;;10.22;100.00
6134;BME280;3098;42.678;23.364;2023-12-28T13:33:09;95294.97;;;8.21;100.00
6134;BME280;3098;42.678;23.364;2023-12-28T13:35:45;95504.16;;;9.70;100.00
6134;BME280;3098;42.678;23.364;2023-12-28T13:38:13;95581.66;;;10.18;100.00
6134;BME280;3098;42.678;23.364;2023-12-28T13:40:42;95288.63;;;8.22;100.00
6134;BME280;3098;42.678;23.364;2023-12-28T13:43:15;95450.19;;;9.10;100.00
6134;BME280;3098;42.678;23.364;2023-12-28T13:45:52;95611.84;;;10.36;100.00
6134;BME280;3098;42.678;23.364;2023-12-28T13:48:20;95730.97;;;10.88;100.00
6134;BME280;3098;42.678;23.364;2023-12-28T13:50:55;95617.59;;;10.06;100.00
6134;BME280;3098;42.678;23.364;2023-12-28T13:53:23;95256.03;;;8.08;100.00
6134;BME280;3098;42.678;23.364;2023-12-28T13:55:57;95720.03;;;11.09;100.00
6134;BME280;3098;42.678;23.364;2023-12-28T13:58:26;95287.53;;;8.04;100.00
6134;BME280;3098;42.678;23.364;2023-12-28T14:00:56;95722.22;;;11.07;100.00
6134;BME280;3098;42.678;23.364;2023-12-28T14:03:23;95743.91;;;10.95;100.00
6134;BME280;3098;42.678;23.364;2023-12-28T14:05:58;95257.50;;;7.95;100.00